Time;durP1;ratioP1;P1;durP2;ratioP2;P2;SDS_P1;SDS_P2;PMS_P1;PMS_P2;Temp;Humidity;BMP_temperature;BMP_pressure;BME280_temperature;BME280_humidity;BME280_pressure;Samples;Min_cycle;Max_cycle;Signal;HPM_P1;HPM_P2
2022/12/22 03:29:58;;;;;;;0.10;0.10;;;;;;;9.02;100.00;100206.16;10373814;28;20056;-63
2022/12/22 03:35:00;;;;;;;0.20;0.20;;;;;;;8.98;100.00;100198.59;10374876;28;20444;-63
2022/12/22 03:40:03;;;;;;;0.13;0.13;;;;;;;8.88;100.00;100196.56;10358086;28;20080;-63
2022/12/22 03:50:28;;;;;;;0.20;0.20;;;;;;;8.91;100.00;100175.50;10357937;28;20096;-63
2022/12/22 03:55:31;;;;;;;0.30;0.30;;;;;;;8.90;100.00;100184.25;10355692;28;20497;-63
2022/12/22 04:00:33;;;;;;;0.30;0.30;;;;;;;8.81;100.00;100187.44;10374931;28;20061;-63
2022/12/22 04:05:35;;;;;;;0.10;0.10;;;;;;;8.98;100.00;100180.31;10374824;28;20054;-63
2022/12/22 04:15:59;;;;;;;0.20;0.20;;;;;;;8.78;100.00;100151.06;10374186;28;20050;-63
2022/12/22 04:21:01;;;;;;;0.20;0.20;;;;;;;8.90;100.00;100144.25;10374126;28;20074;-63
2022/12/22 04:26:04;;;;;;;0.30;0.30;;;;;;;8.76;100.00;100145.09;10373028;28;20410;-63
2022/12/22 04:31:06;;;;;;;0.20;0.20;;;;;;;8.93;100.00;100142.28;10373107;28;20050;-63
2022/12/22 04:36:09;;;;;;;1.50;1.40;;;;;;;8.94;100.00;100135.28;10356456;28;20076;-63
2022/12/22 04:41:12;;;;;;;0.30;0.30;;;;;;;8.84;100.00;100136.78;10356848;28;20054;-63
2022/12/22 04:46:14;;;;;;;0.20;0.20;;;;;;;8.81;100.00;100143.06;10373463;28;20049;-63
2022/12/22 04:51:16;;;;;;;0.20;0.20;;;;;;;8.80;100.00;100143.97;10322360;28;20046;-63
2022/12/22 04:56:19;;;;;;;0.20;0.20;;;;;;;8.64;100.00;100140.59;10355890;28;20482;-63
2022/12/22 05:01:21;;;;;;;0.10;0.10;;;;;;;8.98;100.00;100151.59;10374927;28;20500;-63
2022/12/22 05:06:23;;;;;;;0.13;0.13;;;;;;;8.76;100.00;100159.91;10363079;28;20049;-64
2022/12/22 05:11:26;;;;;;;0.20;0.20;;;;;;;8.73;100.00;100169.59;10378894;28;20401;-63
2022/12/22 05:16:28;;;;;;;0.20;0.20;;;;;;;8.90;100.00;100147.69;10380204;28;20448;-63
2022/12/22 05:21:30;;;;;;;0.20;0.20;;;;;;;8.85;100.00;100162.81;10379446;28;20057;-63
2022/12/22 05:26:33;;;;;;;0.10;0.10;;;;;;;9.03;100.00;100163.47;10380419;28;20444;-63
2022/12/22 05:31:35;;;;;;;0.65;0.65;;;;;;;8.96;100.00;100158.69;10378055;28;20512;-63
2022/12/22 05:36:44;;;;;;;0.30;0.30;;;;;;;8.73;100.00;100163.56;10387189;22;20104;-63
2022/12/22 05:41:46;;;;;;;0.20;0.20;;;;;;;8.78;100.00;100163.28;10379950;28;20046;-63
2022/12/22 05:46:52;;;;;;;0.13;0.13;;;;;;;9.12;100.00;100156.84;10378257;28;20058;-63
2022/12/22 05:51:55;;;;;;;0.20;0.20;;;;;;;9.28;100.00;100172.41;10377865;28;20053;-63
2022/12/22 05:56:58;;;;;;;0.20;0.20;;;;;;;9.35;100.00;100167.66;10378675;28;20436;-63
2022/12/22 06:02:00;;;;;;;2.50;1.33;;;;;;;9.06;100.00;100168.50;10361117;28;20484;-63
2022/12/22 06:07:02;;;;;;;0.28;0.28;;;;;;;9.17;100.00;100186.13;10378204;28;20046;-63
2022/12/22 06:12:05;;;;;;;1.25;1.10;;;;;;;9.15;100.00;100208.88;10376349;28;20049;-63
2022/12/22 06:17:08;;;;;;;0.50;0.50;;;;;;;9.22;100.00;100210.19;10376934;28;20516;-63
2022/12/22 06:22:10;;;;;;;0.20;0.20;;;;;;;9.29;100.00;100228.94;10378376;28;20041;-63
2022/12/22 06:27:12;;;;;;;0.15;0.15;;;;;;;9.26;100.00;100236.94;10377363;28;20050;-63
2022/12/22 06:32:15;;;;;;;0.73;0.73;;;;;;;9.25;100.00;100245.75;10414312;28;20489;-63
2022/12/22 06:37:17;;;;;;;0.77;0.77;;;;;;;9.04;100.00;100259.13;10417995;28;20076;-63
2022/12/22 06:48:11;;;;;;;0.50;0.50;;;;;;;9.24;100.00;100273.63;10228812;29;20054;-63
2022/12/22 06:53:13;;;;;;;3.17;1.98;;;;;;;9.01;100.00;100272.41;10345628;28;20050;-63
2022/12/22 06:58:15;;;;;;;1.55;0.88;;;;;;;9.10;100.00;100284.06;10376351;28;20503;-63
2022/12/22 07:03:18;;;;;;;3.92;3.13;;;;;;;9.13;100.00;100289.09;10384762;28;20400;-63
2022/12/22 07:08:20;;;;;;;0.40;0.40;;;;;;;9.10;100.00;100300.56;10405253;28;20054;-63
2022/12/22 07:13:32;;;;;;;1.38;0.70;;;;;;;9.01;100.00;100306.34;10376355;28;20057;-63
2022/12/22 07:18:37;;;;;;;2.10;0.55;;;;;;;9.05;100.00;100322.66;10375581;28;20049;-63
2022/12/22 07:23:40;;;;;;;0.25;0.25;;;;;;;9.04;100.00;100320.97;10358550;28;20045;-63
2022/12/22 07:28:43;;;;;;;0.65;0.45;;;;;;;9.14;100.00;100324.72;10373781;28;20488;-63
2022/12/22 07:33:45;;;;;;;0.85;0.85;;;;;;;9.14;100.00;100326.50;10375480;28;20065;-63
2022/12/22 07:38:49;;;;;;;0.90;0.90;;;;;;;8.79;100.00;100327.59;10375655;28;20129;-63
2022/12/22 07:43:56;;;;;;;0.15;0.15;;;;;;;8.91;100.00;100337.38;10380547;28;20042;-63
2022/12/22 07:54:19;;;;;;;3.20;0.93;;;;;;;8.73;100.00;100330.59;10415335;28;20195;-63
2022/12/22 07:59:21;;;;;;;0.10;0.10;;;;;;;8.55;100.00;100354.16;10415794;28;20049;-63
2022/12/22 08:04:24;;;;;;;0.20;0.20;;;;;;;8.72;100.00;100379.34;10366297;28;20050;-63
2022/12/22 08:09:26;;;;;;;1.55;1.20;;;;;;;8.58;100.00;100386.25;10381989;28;20054;-63
2022/12/22 08:14:28;;;;;;;0.75;0.75;;;;;;;8.42;100.00;100405.31;10406860;28;20046;-63
2022/12/22 08:19:32;;;;;;;7.47;2.40;;;;;;;8.50;100.00;100420.59;10374009;28;20564;-63
2022/12/22 08:24:35;;;;;;;14.60;3.38;;;;;;;8.28;100.00;100441.75;10373261;28;20073;-63
2022/12/22 08:29:44;;;;;;;1.17;1.17;;;;;;;8.38;100.00;100446.38;10407363;28;20049;-63
2022/12/22 08:34:49;;;;;;;1.73;1.63;;;;;;;8.51;100.00;100458.81;10413656;28;20060;-63
2022/12/22 08:39:57;;;;;;;0.20;0.20;;;;;;;8.89;100.00;100450.63;10402472;28;20072;-63
2022/12/22 08:45:00;;;;;;;0.30;0.30;;;;;;;8.72;100.00;100454.19;10364749;28;20049;-63
2022/12/22 08:50:03;;;;;;;0.63;0.63;;;;;;;8.80;100.00;100449.38;10409865;28;20050;-63
2022/12/22 08:55:06;;;;;;;1.15;1.15;;;;;;;8.95;100.00;100445.06;10410950;28;20489;-63
2022/12/22 09:00:11;;;;;;;5.05;1.85;;;;;;;8.92;100.00;100459.13;10392541;28;20116;-63
2022/12/22 09:05:14;;;;;;;0.88;0.88;;;;;;;9.04;100.00;100473.25;10366179;28;20488;-63
2022/12/22 09:10:17;;;;;;;0.40;0.40;;;;;;;8.85;100.00;100480.47;10349978;28;20054;-63
2022/12/22 09:15:19;;;;;;;0.32;0.32;;;;;;;8.79;100.00;100489.44;10361366;28;20050;-63
2022/12/22 09:20:21;;;;;;;0.17;0.17;;;;;;;8.64;100.00;100500.72;10363124;28;20072;-63
2022/12/22 09:25:23;;;;;;;0.52;0.50;;;;;;;8.62;100.00;100513.84;10403235;28;20471;-63
2022/12/22 09:30:26;;;;;;;4.18;1.25;;;;;;;8.40;100.00;100514.13;10383652;28;20507;-63
2022/12/22 09:35:28;;;;;;;0.65;0.65;;;;;;;8.27;100.00;100528.75;10399533;28;20054;-63
2022/12/22 09:40:31;;;;;;;19.38;6.50;;;;;;;8.20;100.00;100530.81;10392308;28;20096;-63
2022/12/22 09:45:35;;;;;;;1.27;1.27;;;;;;;8.76;100.00;100536.63;10378218;28;20046;-63
2022/12/22 09:50:39;;;;;;;3.13;1.42;;;;;;;8.30;100.00;100541.63;10378058;28;20555;-63
2022/12/22 09:55:44;;;;;;;0.73;0.73;;;;;;;8.47;100.00;100540.78;10364286;28;20050;-63
2022/12/22 10:01:12;;;;;;;0.20;0.20;;;;;;;8.58;100.00;100527.19;10376798;28;20054;-63
2022/12/22 10:06:36;;;;;;;0.77;0.77;;;;;;;8.59;100.00;100523.63;10413874;28;20143;-63
2022/12/22 10:11:39;;;;;;;0.10;0.10;;;;;;;8.68;100.00;100536.19;10338285;28;20054;-63
2022/12/22 10:16:41;;;;;;;3.50;2.72;;;;;;;8.61;100.00;100535.69;10338107;28;20125;-63
2022/12/22 10:21:43;;;;;;;10.13;4.32;;;;;;;8.35;100.00;100526.56;10324867;28;20054;-63
2022/12/22 10:26:49;;;;;;;1.45;1.33;;;;;;;8.04;100.00;100519.50;10418024;28;20063;-63
2022/12/22 10:32:12;;;;;;;2.58;2.38;;;;;;;7.93;100.00;100533.06;10417012;28;20551;-63
2022/12/22 10:37:14;;;;;;;2.50;2.17;;;;;;;7.88;100.00;100558.53;10393365;28;20062;-63
2022/12/22 10:42:16;;;;;;;0.55;0.55;;;;;;;8.30;100.00;100557.28;10359741;28;20097;-63
2022/12/22 10:47:22;;;;;;;5.72;0.80;;;;;;;8.33;100.00;100559.72;10377394;28;20058;-63
2022/12/22 10:52:28;;;;;;;2.53;1.02;;;;;;;8.32;100.00;100560.63;10359472;28;20503;-63
2022/12/22 10:57:33;;;;;;;0.20;0.20;;;;;;;8.74;100.00;100567.16;10395949;28;20053;-63
2022/12/22 11:02:37;;;;;;;0.30;0.30;;;;;;;8.43;100.00;100562.75;10417223;28;20053;-63
2022/12/22 11:07:42;;;;;;;0.20;0.20;;;;;;;8.41;100.00;100575.00;10388160;28;20531;-63
2022/12/22 11:13:02;;;;;;;2.85;2.65;;;;;;;8.63;100.00;100582.56;10378597;28;20461;-63
2022/12/22 11:18:24;;;;;;;3.40;0.85;;;;;;;8.52;100.00;100578.78;10417186;28;20072;-63
2022/12/22 11:24:05;;;;;;;0.10;0.10;;;;;;;9.14;100.00;100582.47;10416395;28;20459;-63
2022/12/22 11:29:44;;;;;;;6.20;3.63;;;;;;;8.72;100.00;100579.47;10406634;28;20486;-63
2022/12/22 11:35:11;;;;;;;2.00;1.85;;;;;;;9.02;100.00;100603.09;10403392;28;20061;-63
2022/12/22 11:40:33;;;;;;;0.35;0.35;;;;;;;9.18;100.00;100599.63;10416479;28;20045;-63
2022/12/22 11:45:53;;;;;;;1.48;1.48;;;;;;;9.03;100.00;100601.34;10401402;28;20050;-63
2022/12/22 11:50:57;;;;;;;1.40;1.08;;;;;;;9.06;100.00;100599.41;10374595;28;20061;-63
2022/12/22 11:56:25;;;;;;;2.40;2.17;;;;;;;9.18;100.00;100592.66;10374011;28;20053;-63
2022/12/22 12:01:28;;;;;;;4.07;1.95;;;;;;;9.22;100.00;100590.72;10373845;28;20046;-63
2022/12/22 12:06:37;;;;;;;1.45;1.35;;;;;;;9.56;100.00;100584.44;10374306;28;20500;-63
2022/12/22 12:11:46;;;;;;;0.73;0.65;;;;;;;9.51;100.00;100591.72;10361237;28;20119;-63
2022/12/22 12:16:58;;;;;;;3.33;3.03;;;;;;;9.37;100.00;100594.25;10410154;28;20057;-63
2022/12/22 12:22:07;;;;;;;0.30;0.30;;;;;;;9.82;100.00;100577.75;10384007;28;20129;-63
2022/12/22 12:27:25;;;;;;;0.20;0.20;;;;;;;9.85;100.00;100564.50;10366231;28;20457;-63
2022/12/22 12:32:39;;;;;;;3.47;1.27;;;;;;;9.73;100.00;100564.34;10384686;28;20049;-63
2022/12/22 12:37:43;;;;;;;1.15;1.05;;;;;;;9.49;100.00;100565.66;10364269;28;20508;-63
2022/12/22 12:42:47;;;;;;;0.20;0.20;;;;;;;9.42;100.00;100574.78;10376746;28;21335;-63
2022/12/22 12:47:49;;;;;;;1.98;1.88;;;;;;;8.96;100.00;100561.66;10405791;28;20450;-63
2022/12/22 12:52:51;;;;;;;0.52;0.40;;;;;;;9.14;100.00;100559.78;10421880;28;20053;-63
2022/12/22 12:57:54;;;;;;;1.33;0.47;;;;;;;8.43;100.00;100558.34;10403731;28;20496;-63
2022/12/22 13:03:00;;;;;;;3.92;2.53;;;;;;;8.61;100.00;100559.16;10363391;28;20057;-63
2022/12/22 13:08:08;;;;;;;2.45;1.95;;;;;;;8.70;100.00;100557.81;10379680;28;20054;-63
2022/12/22 13:13:32;;;;;;;0.20;0.20;;;;;;;9.13;100.00;100558.13;10379725;28;20045;-63
2022/12/22 13:18:34;;;;;;;0.98;0.70;;;;;;;9.21;100.00;100553.31;10369724;28;20050;-63
2022/12/22 13:23:49;;;;;;;11.38;5.28;;;;;;;8.95;100.00;100549.53;10379412;28;20046;-63
2022/12/22 13:29:21;;;;;;;1.55;1.15;;;;;;;8.74;100.00;100559.34;10383764;28;20053;-63
2022/12/22 13:34:42;;;;;;;4.78;1.88;;;;;;;8.51;100.00;100568.41;10419834;28;20414;-63
2022/12/22 13:40:16;;;;;;;0.75;0.75;;;;;;;8.80;100.00;100579.06;10391767;28;20059;-63
2022/12/22 13:45:38;;;;;;;3.97;1.15;;;;;;;8.64;100.00;100572.06;10337489;28;20054;-63
2022/12/22 13:50:50;;;;;;;3.40;1.00;;;;;;;8.91;100.00;100574.13;10338511;28;20057;-63
2022/12/22 13:55:53;;;;;;;0.20;0.20;;;;;;;9.03;100.00;100562.16;10337037;28;20050;-63
2022/12/22 14:01:15;;;;;;;2.67;2.58;;;;;;;9.06;100.00;100551.53;10337556;28;20065;-63
2022/12/22 14:06:38;;;;;;;0.85;0.85;;;;;;;8.85;100.00;100551.78;10336617;28;20104;-64
2022/12/22 14:11:43;;;;;;;0.20;0.20;;;;;;;9.09;100.00;100543.53;10336688;28;20054;-64
2022/12/22 14:16:56;;;;;;;0.10;0.10;;;;;;;9.03;100.00;100539.50;10336122;28;20047;-63
2022/12/22 14:22:12;;;;;;;0.20;0.20;;;;;;;9.02;100.00;100543.03;10336137;28;20051;-63
2022/12/22 14:27:43;;;;;;;9.88;4.68;;;;;;;8.69;100.00;100541.34;10336348;28;20058;-63
2022/12/22 14:32:51;;;;;;;0.20;0.20;;;;;;;8.91;100.00;100534.97;10335437;28;20047;-63
2022/12/22 14:38:12;;;;;;;0.10;0.10;;;;;;;8.89;100.00;100535.03;10335366;28;20054;-63
2022/12/22 14:43:17;;;;;;;0.10;0.10;;;;;;;9.18;100.00;100526.50;10334692;28;20047;-63
2022/12/22 14:48:27;;;;;;;0.13;0.13;;;;;;;9.00;100.00;100510.09;10352215;28;20050;-63
2022/12/22 14:53:47;;;;;;;1.15;1.15;;;;;;;9.04;100.00;100507.22;10359694;28;20100;-63
2022/12/22 14:58:50;;;;;;;0.32;0.32;;;;;;;8.96;100.00;100501.59;10415909;28;20439;-63
2022/12/22 15:04:01;;;;;;;0.93;0.65;;;;;;;8.67;100.00;100493.56;10406104;28;20120;-63
2022/12/22 15:09:07;;;;;;;0.77;0.77;;;;;;;8.74;100.00;100499.31;10375772;28;20054;-63
2022/12/22 15:14:18;;;;;;;0.30;0.30;;;;;;;8.51;100.00;100508.41;10382414;28;20057;-63
2022/12/22 15:19:21;;;;;;;0.10;0.10;;;;;;;8.66;100.00;100514.56;10407002;28;20500;-63
2022/12/22 15:24:23;;;;;;;0.20;0.20;;;;;;;8.56;100.00;100501.16;10383255;28;20081;-63
2022/12/22 15:29:26;;;;;;;0.22;0.22;;;;;;;8.53;100.00;100504.75;10375314;28;20409;-63
2022/12/22 15:34:31;;;;;;;2.75;1.08;;;;;;;8.40;100.00;100501.09;10375499;28;20058;-63
2022/12/22 15:39:33;;;;;;;0.30;0.30;;;;;;;8.45;100.00;100500.88;10374489;28;20061;-63
2022/12/22 15:44:36;;;;;;;1.13;1.13;;;;;;;8.26;100.00;100494.00;10375470;28;20073;-63
2022/12/22 15:49:40;;;;;;;0.15;0.15;;;;;;;8.39;100.00;100504.63;10373598;28;20141;-63
2022/12/22 15:54:43;;;;;;;0.85;0.85;;;;;;;8.12;100.00;100502.56;10374572;28;20409;-63
2022/12/22 15:59:45;;;;;;;1.02;1.02;;;;;;;8.12;100.00;100491.25;10373990;28;20054;-63
2022/12/22 16:04:48;;;;;;;0.65;0.65;;;;;;;7.91;100.00;100496.66;10374942;28;20129;-63
2022/12/22 16:09:50;;;;;;;0.10;0.10;;;;;;;8.01;100.00;100489.22;10374140;28;20057;-63
2022/12/22 16:14:55;;;;;;;0.20;0.20;;;;;;;8.07;100.00;100473.25;10374696;28;20045;-63
2022/12/22 16:19:58;;;;;;;1.20;1.20;;;;;;;8.02;100.00;100474.41;10372912;28;20386;-63
2022/12/22 16:25:02;;;;;;;1.90;1.75;;;;;;;7.99;100.00;100463.22;10374554;28;20050;-63
2022/12/22 16:30:05;;;;;;;1.02;1.00;;;;;;;7.89;100.00;100455.97;10373854;28;20563;-63
2022/12/22 16:35:08;;;;;;;0.20;0.20;;;;;;;8.06;100.00;100450.72;10372877;28;20061;-63
2022/12/22 16:40:11;;;;;;;0.35;0.35;;;;;;;7.93;100.00;100440.06;10373680;28;20456;-63
2022/12/22 16:45:20;;;;;;;0.98;0.98;;;;;;;7.79;100.00;100437.34;10374219;28;20050;-63
2022/12/22 16:50:31;;;;;;;0.15;0.15;;;;;;;7.78;100.00;100441.72;10372494;28;20056;-65
2022/12/22 16:55:34;;;;;;;0.10;0.10;;;;;;;7.76;100.00;100427.91;10372609;28;20053;-65
2022/12/22 17:00:38;;;;;;;9.45;2.20;;;;;;;7.87;100.00;100429.13;10380857;28;20081;-65
2022/12/22 17:05:53;;;;;;;5.63;1.85;;;;;;;7.76;100.00;100420.09;10379669;28;20496;-64
2022/12/22 17:10:57;;;;;;;0.20;0.20;;;;;;;7.92;100.00;100408.91;10380297;28;20050;-64
2022/12/22 17:16:18;;;;;;;1.92;1.83;;;;;;;7.78;100.00;100399.16;10379987;28;20046;-64
2022/12/22 17:21:21;;;;;;;1.25;1.20;;;;;;;7.82;100.00;100398.09;10380824;28;20108;-64
2022/12/22 17:26:25;;;;;;;0.20;0.20;;;;;;;7.79;100.00;100382.63;10379543;28;20053;-64
2022/12/22 17:31:27;;;;;;;0.20;0.20;;;;;;;7.91;100.00;100373.31;10379908;28;20481;-64
2022/12/22 17:36:33;;;;;;;0.35;0.35;;;;;;;7.96;100.00;100363.47;10362436;28;20129;-64
2022/12/22 17:41:35;;;;;;;3.63;1.95;;;;;;;8.12;100.00;100353.91;10377795;28;20050;-64
2022/12/22 17:46:38;;;;;;;0.10;0.10;;;;;;;8.02;100.00;100357.09;10376689;28;20050;-64
2022/12/22 17:51:41;;;;;;;0.80;0.77;;;;;;;7.87;100.00;100346.56;10460573;23;20077;-64
2022/12/22 17:56:43;;;;;;;0.20;0.20;;;;;;;7.87;100.00;100340.50;10459074;28;20124;-63
2022/12/22 18:01:46;;;;;;;1.55;1.48;;;;;;;7.89;100.00;100338.66;10460157;28;20048;-63
2022/12/22 18:06:48;;;;;;;0.20;0.20;;;;;;;8.00;100.00;100325.88;10453564;28;20052;-64
2022/12/22 18:11:51;;;;;;;0.30;0.30;;;;;;;8.21;100.00;100316.06;10441583;28;20057;-64
2022/12/22 18:16:53;;;;;;;0.40;0.40;;;;;;;8.03;100.00;100317.06;10457450;28;20045;-64
2022/12/22 18:21:56;;;;;;;0.25;0.25;;;;;;;8.13;100.00;100306.03;10460706;28;20060;-64
2022/12/22 18:26:59;;;;;;;0.20;0.20;;;;;;;8.03;100.00;100314.47;10441364;28;20049;-64
2022/12/22 18:32:02;;;;;;;0.82;0.82;;;;;;;8.51;100.00;100295.28;10459374;28;20053;-64
2022/12/22 18:37:15;;;;;;;0.20;0.20;;;;;;;8.30;100.00;100291.22;10453643;28;20124;-64
2022/12/22 18:42:22;;;;;;;2.45;0.45;;;;;;;8.44;100.00;100283.50;10430587;28;20095;-64
2022/12/22 18:47:24;;;;;;;0.63;0.63;;;;;;;8.55;100.00;100272.44;10455752;28;20049;-64
2022/12/22 18:52:27;;;;;;;0.20;0.20;;;;;;;8.66;100.00;100269.25;10456423;28;20056;-64
2022/12/22 18:57:29;;;;;;;0.20;0.20;;;;;;;8.70;100.00;100274.16;10383767;28;20100;-64
2022/12/22 19:02:32;;;;;;;2.45;2.28;;;;;;;8.96;100.00;100265.75;10405268;28;20155;-64
2022/12/22 19:07:34;;;;;;;0.25;0.25;;;;;;;9.09;100.00;100264.09;10457496;28;20045;-64
2022/12/22 19:12:36;;;;;;;3.75;0.50;;;;;;;9.16;100.00;100261.94;10454113;28;20417;-64
2022/12/22 19:17:39;;;;;;;1.35;0.77;;;;;;;9.35;100.00;100256.47;10423785;28;20053;-64
2022/12/22 19:22:42;;;;;;;1.15;1.10;;;;;;;9.31;100.00;100255.78;10457352;28;20057;-64
2022/12/22 19:27:46;;;;;;;0.30;0.30;;;;;;;9.45;100.00;100257.59;10458082;28;20052;-64
2022/12/22 19:33:00;;;;;;;1.40;0.95;;;;;;;9.32;100.00;100249.66;10438695;28;20523;-64
2022/12/22 19:38:30;;;;;;;0.20;0.20;;;;;;;9.49;100.00;100244.22;10437240;28;20488;-64
2022/12/22 19:43:33;;;;;;;0.20;0.20;;;;;;;9.57;100.00;100245.53;10451410;28;20099;-64
2022/12/22 19:48:35;;;;;;;1.95;1.15;;;;;;;9.57;100.00;100258.59;10456730;28;20514;-64
2022/12/22 19:53:37;;;;;;;0.52;0.47;;;;;;;9.56;100.00;100259.53;10436928;28;20053;-63
2022/12/22 19:58:40;;;;;;;0.20;0.20;;;;;;;9.68;100.00;100248.31;10455705;28;20415;-63
2022/12/22 20:03:43;;;;;;;0.30;0.30;;;;;;;9.60;100.00;100250.56;10439133;28;20388;-63
2022/12/22 20:08:45;;;;;;;0.20;0.20;;;;;;;9.67;100.00;100244.88;10439366;28;20060;-64
2022/12/22 20:13:48;;;;;;;0.93;0.93;;;;;;;9.67;100.00;100249.25;10455821;28;20045;-64
2022/12/22 20:18:51;;;;;;;0.30;0.30;;;;;;;9.65;100.00;100240.69;10453566;28;20488;-64
2022/12/22 20:23:55;;;;;;;1.85;0.95;;;;;;;9.60;100.00;100247.94;10451050;28;20037;-64
2022/12/22 20:28:57;;;;;;;3.00;2.75;;;;;;;9.66;100.00;100244.97;10437914;28;20083;-64
2022/12/22 20:34:00;;;;;;;7.82;2.28;;;;;;;9.66;100.00;100251.00;10460485;28;20545;-64
2022/12/22 20:39:05;;;;;;;2.17;2.00;;;;;;;9.65;100.00;100243.28;10463919;28;20107;-64
2022/12/22 20:44:07;;;;;;;0.73;0.73;;;;;;;9.66;100.00;100242.34;10429768;28;20041;-64
2022/12/22 20:49:14;;;;;;;0.40;0.40;;;;;;;9.67;100.00;100252.69;10461254;28;20095;-64
2022/12/22 20:54:16;;;;;;;1.13;1.02;;;;;;;9.66;100.00;100256.25;10421870;28;20049;-64
2022/12/22 20:59:20;;;;;;;1.80;1.58;;;;;;;9.71;100.00;100262.97;10463909;28;20061;-64
2022/12/22 21:04:23;;;;;;;1.58;1.48;;;;;;;9.76;100.00;100259.13;10462484;28;20480;-64
2022/12/22 21:09:25;;;;;;;0.70;0.70;;;;;;;9.95;100.00;100261.44;10462103;28;20400;-64
2022/12/22 21:14:28;;;;;;;0.20;0.20;;;;;;;10.04;100.00;100260.84;10460773;28;20059;-64
2022/12/22 21:19:30;;;;;;;0.95;0.95;;;;;;;9.89;100.00;100261.81;10459011;28;20049;-64
2022/12/22 21:24:32;;;;;;;0.20;0.20;;;;;;;9.84;100.00;100264.72;10463094;28;20053;-63
2022/12/22 21:29:35;;;;;;;0.90;0.90;;;;;;;9.85;100.00;100262.94;10462108;28;20534;-64
2022/12/22 21:34:37;;;;;;;7.57;2.00;;;;;;;9.80;100.00;100246.69;10443292;28;20045;-63
2022/12/22 21:39:43;;;;;;;1.55;0.63;;;;;;;9.88;100.00;100264.53;10461553;28;20075;-64
2022/12/22 21:44:45;;;;;;;0.20;0.20;;;;;;;9.92;100.00;100259.03;10444693;28;20071;-64
2022/12/22 21:49:48;;;;;;;0.50;0.50;;;;;;;9.84;100.00;100248.19;10461479;28;20088;-64
2022/12/22 21:54:51;;;;;;;5.63;3.55;;;;;;;9.80;100.00;100246.69;10460133;28;20044;-63
2022/12/22 21:59:53;;;;;;;1.92;1.83;;;;;;;9.78;100.00;100238.13;10459463;28;20053;-64
2022/12/22 22:04:55;;;;;;;0.95;0.65;;;;;;;9.74;100.00;100242.72;10461327;28;20045;-64
2022/12/22 22:09:57;;;;;;;0.52;0.52;;;;;;;9.77;100.00;100237.28;10459624;28;20462;-64
2022/12/22 22:15:00;;;;;;;2.17;1.85;;;;;;;9.77;100.00;100249.53;10460251;28;20068;-64
2022/12/22 22:20:04;;;;;;;11.00;3.90;;;;;;;9.80;100.00;100249.31;10458980;28;20099;-64
2022/12/22 22:25:08;;;;;;;2.72;1.70;;;;;;;9.72;100.00;100257.66;10410381;28;20041;-64
2022/12/22 22:30:16;;;;;;;2.40;2.30;;;;;;;9.79;100.00;100258.94;10419188;28;20052;-65
2022/12/22 22:35:18;;;;;;;0.60;0.43;;;;;;;9.85;100.00;100263.78;10436785;28;20041;-65
2022/12/22 22:40:22;;;;;;;0.68;0.68;;;;;;;9.89;100.00;100268.84;10435532;28;20045;-65
2022/12/22 22:45:24;;;;;;;1.88;1.85;;;;;;;9.89;100.00;100261.81;10404774;28;20460;-64
2022/12/22 22:50:26;;;;;;;1.20;1.00;;;;;;;9.78;100.00;100274.72;10400416;28;20129;-65
2022/12/22 22:55:29;;;;;;;0.45;0.45;;;;;;;9.86;100.00;100269.84;10417394;28;20049;-65
2022/12/22 23:00:32;;;;;;;0.20;0.20;;;;;;;9.94;100.00;100274.63;10452625;28;20059;-65
2022/12/22 23:05:34;;;;;;;0.20;0.20;;;;;;;9.88;100.00;100273.22;10457269;28;20048;-65
2022/12/22 23:10:36;;;;;;;0.20;0.20;;;;;;;9.92;100.00;100269.47;10440528;28;20412;-65
2022/12/22 23:15:59;;;;;;;2.00;1.90;;;;;;;9.81;100.00;100256.22;10457052;28;20041;-65
2022/12/22 23:21:03;;;;;;;0.55;0.55;;;;;;;9.79;100.00;100256.31;10434951;28;20564;-65
2022/12/22 23:26:06;;;;;;;1.75;1.50;;;;;;;9.80;100.00;100258.03;10440656;28;20045;-65
2022/12/22 23:31:11;;;;;;;0.40;0.40;;;;;;;9.92;100.00;100269.47;10458182;28;20048;-65
2022/12/22 23:36:13;;;;;;;0.22;0.22;;;;;;;9.83;100.00;100263.06;10456179;28;20056;-64
2022/12/22 23:41:16;;;;;;;1.10;0.68;;;;;;;9.91;100.00;100272.19;10439186;28;20124;-64
2022/12/22 23:46:19;;;;;;;1.08;0.90;;;;;;;9.86;100.00;100280.31;10440061;28;20098;-64
2022/12/22 23:51:23;;;;;;;5.00;2.72;;;;;;;9.84;100.00;100282.19;10439582;28;20099;-64
2022/12/22 23:56:25;;;;;;;1.33;1.33;;;;;;;9.82;100.00;100271.81;10455834;28;20068;-64
